aviador You're here:

LFOE Decoded Metar

EVREUX in FRANCE
Report Time2018-05-28 07:30:00
UTC Time2018-05-28 08:00:01
Flight Rules vfr VFR
Wind060° at 04 kt
W.Decomp.*RWY 04: 3.7 kt HW 1.4 kt RCW
W.Rank060° ranks 25
Current wind is below 060° avg. (5.9)
Visibility9999 m
Phenomena:N/A
Clouds:N/A
Expected CloudBase > 1,600 ft AGL from Temp-Dew spread
CeilingNone
Temp21°C (ISA +7)
Dew Point17°C (78% RH)
QNH1017 hPa
Density Alt1,414 ft
Elevation479 ft
Report Wrong Elevation
Raw Report
LFOE 280730Z AUTO 06004KT CAVOK 21/17 Q1017 NOSIG=

Extra information for LFOE:More info

Metar Taf Metar & Taf Last 4 Metars F.Rules Stats Wind Profile Meteogram Temp Stats Airport Information Weather charts Add Link Nearby VenuesMetar ALERT Operation Metar Decoded Social comments